Time;durP1;ratioP1;P1;durP2;ratioP2;P2;SDS_P1;SDS_P2;PMS_P1;PMS_P2;Temp;Humidity;BMP_temperature;BMP_pressure;BME280_temperature;BME280_humidity;BME280_pressure;Samples;Min_cycle;Max_cycle;Signal;HPM_P1;HPM_P2
2022/01/04 00:02:14;;;;;;;4.75;2.20;;;;;;;6.03;100.00;98113.08;1727790;82;21656;-64
2022/01/04 00:04:40;;;;;;;5.10;2.17;;;;;;;5.99;100.00;98114.72;1732171;82;20988;-64
2022/01/04 00:07:07;;;;;;;4.55;2.17;;;;;;;5.98;100.00;98129.34;1743828;82;21549;-65
2022/01/04 00:09:39;;;;;;;5.45;1.70;;;;;;;6.00;100.00;98125.80;1729246;82;21098;-65
2022/01/04 00:14:33;;;;;;;5.40;2.02;;;;;;;5.98;100.00;98132.04;1682563;82;21039;-64
2022/01/04 00:17:00;;;;;;;4.42;2.20;;;;;;;5.95;100.00;98138.78;1655716;86;21158;-64
2022/01/04 00:19:26;;;;;;;3.62;1.77;;;;;;;5.97;100.00;98147.44;1676830;83;21122;-64
2022/01/04 00:21:55;;;;;;;3.22;1.75;;;;;;;5.95;100.00;98147.45;1684141;85;21622;-64
2022/01/04 00:24:21;;;;;;;4.22;1.87;;;;;;;5.91;100.00;98152.61;1678944;84;21126;-64
2022/01/04 00:26:48;;;;;;;4.62;1.70;;;;;;;5.88;100.00;98160.47;1716583;82;21103;-64
2022/01/04 00:29:14;;;;;;;3.40;1.57;;;;;;;5.89;100.00;98153.42;1683850;83;21564;-64
2022/01/04 00:31:41;;;;;;;5.05;1.47;;;;;;;5.89;100.00;98156.66;1722056;82;21507;-63
2022/01/04 00:34:08;;;;;;;3.27;1.37;;;;;;;5.84;100.00;98158.84;1725714;82;21090;-64
2022/01/04 00:36:35;;;;;;;4.10;1.60;;;;;;;5.86;100.00;98162.63;1724571;82;21612;-64
2022/01/04 00:39:01;;;;;;;3.15;1.37;;;;;;;5.89;100.00;98164.77;1725570;82;21664;-63
2022/01/04 00:41:27;;;;;;;2.60;1.67;;;;;;;5.87;100.00;98165.06;1719601;82;21477;-64
2022/01/04 00:43:54;;;;;;;2.80;1.47;;;;;;;5.85;100.00;98164.48;1725945;82;21037;-63
2022/01/04 00:46:20;;;;;;;3.12;1.40;;;;;;;5.88;100.00;98173.97;1730965;82;21537;-64
2022/01/04 00:51:32;;;;;;;2.95;1.40;;;;;;;5.83;100.00;98173.95;1731532;82;21574;-64
2022/01/04 00:53:58;;;;;;;4.50;1.45;;;;;;;5.83;100.00;98177.47;1714735;82;21061;-64
2022/01/04 00:56:24;;;;;;;5.22;1.45;;;;;;;5.87;100.00;98165.59;1717155;82;21566;-64
2022/01/04 00:58:53;;;;;;;3.25;1.50;;;;;;;5.81;100.00;98162.64;1713637;82;21056;-64
2022/01/04 01:01:21;;;;;;;2.80;1.20;;;;;;;5.83;100.00;98169.91;1728135;82;21075;-63
2022/01/04 01:03:47;;;;;;;4.95;1.80;;;;;;;5.87;100.00;98168.30;1738004;82;21557;-64
2022/01/04 01:06:14;;;;;;;3.33;1.70;;;;;;;5.88;100.00;98163.95;1721490;82;21207;-63
2022/01/04 01:08:41;;;;;;;3.35;1.70;;;;;;;5.89;100.00;98179.08;1726397;82;21450;-63
2022/01/04 01:11:10;;;;;;;4.90;1.92;;;;;;;5.84;100.00;98172.88;1737483;82;21519;-64
2022/01/04 01:13:36;;;;;;;4.12;1.30;;;;;;;5.85;100.00;98176.63;1719024;82;21000;-63
2022/01/04 01:16:04;;;;;;;4.70;1.50;;;;;;;5.86;100.00;98176.12;1727915;82;21118;-64
2022/01/04 01:18:32;;;;;;;3.40;1.77;;;;;;;5.85;100.00;98180.69;1738895;82;21095;-64
2022/01/04 01:21:02;;;;;;;3.77;1.80;;;;;;;5.82;100.00;98185.83;1735313;82;21115;-64
2022/01/04 01:23:30;;;;;;;4.05;1.72;;;;;;;5.79;100.00;98182.34;1725776;82;21075;-64
2022/01/04 01:25:57;;;;;;;3.77;1.90;;;;;;;5.81;100.00;98185.59;1727829;82;21078;-63
2022/01/04 01:28:25;;;;;;;4.15;1.80;;;;;;;5.83;100.00;98186.11;1713222;82;21027;-64
2022/01/04 01:30:52;;;;;;;3.52;2.00;;;;;;;5.83;100.00;98188.81;1732995;82;21082;-64
2022/01/04 01:33:20;;;;;;;3.85;1.75;;;;;;;5.80;100.00;98188.83;1733841;82;21531;-64
2022/01/04 01:35:47;;;;;;;4.45;2.55;;;;;;;5.75;100.00;98191.55;1737657;82;21476;-64
2022/01/04 01:38:16;;;;;;;4.47;2.27;;;;;;;5.76;100.00;98200.45;1708646;82;21050;-65
2022/01/04 01:40:43;;;;;;;4.47;2.42;;;;;;;5.76;100.00;98193.70;1739733;82;21071;-64
2022/01/04 01:43:09;;;;;;;3.30;2.12;;;;;;;5.76;100.00;98189.12;1727634;82;21557;-64
2022/01/04 01:45:37;;;;;;;3.67;2.55;;;;;;;5.73;100.00;98196.42;1740350;82;21546;-64
2022/01/04 01:48:05;;;;;;;4.62;2.30;;;;;;;5.64;100.00;98195.91;1741046;82;20968;-64
2022/01/04 01:50:31;;;;;;;3.95;2.20;;;;;;;5.60;100.00;98197.57;1743260;82;21122;-65
2022/01/04 01:52:58;;;;;;;5.10;2.10;;;;;;;5.62;100.00;98194.04;1721852;82;21047;-64
2022/01/04 01:55:24;;;;;;;2.58;1.20;;;;;;;5.63;100.00;98201.06;1742826;82;21066;-64
2022/01/04 01:57:51;;;;;;;4.50;1.40;;;;;;;5.62;100.00;98191.34;1725451;82;21523;-64
2022/01/04 02:00:19;;;;;;;3.42;1.00;;;;;;;5.58;100.00;98188.92;1730692;82;21100;-64
2022/01/04 02:02:47;;;;;;;2.80;0.80;;;;;;;5.55;100.00;98198.93;1732491;82;21026;-65
2022/01/04 02:05:14;;;;;;;4.72;0.90;;;;;;;5.57;100.00;98195.40;1731148;82;21043;-64
2022/01/04 02:07:41;;;;;;;1.85;0.70;;;;;;;5.57;100.00;98204.84;1728693;82;20996;-64
2022/01/04 02:10:08;;;;;;;2.05;0.57;;;;;;;5.51;100.00;98199.48;1737732;82;21533;-64
2022/01/04 02:12:40;;;;;;;1.75;0.60;;;;;;;5.50;100.00;98199.21;1724428;82;21079;-64
2022/01/04 02:15:10;;;;;;;3.37;0.68;;;;;;;5.50;100.00;98197.05;1726729;82;21082;-63
2022/01/04 02:17:40;;;;;;;2.08;0.70;;;;;;;5.50;100.00;98203.27;1726005;82;21067;-63
2022/01/04 02:20:07;;;;;;;2.85;0.98;;;;;;;5.49;100.00;98206.25;1735789;82;21039;-64
2022/01/04 02:22:35;;;;;;;2.42;1.20;;;;;;;5.47;100.00;98203.81;1739446;82;21051;-64
2022/01/04 02:25:03;;;;;;;2.45;1.10;;;;;;;5.40;100.00;98197.91;1723447;82;21577;-64
2022/01/04 02:27:34;;;;;;;2.37;1.10;;;;;;;5.40;100.00;98204.66;1734942;82;21060;-64
2022/01/04 02:30:01;;;;;;;1.80;0.88;;;;;;;5.41;100.00;98195.48;1723784;82;21049;-63
2022/01/04 02:32:28;;;;;;;1.30;0.80;;;;;;;5.43;100.00;98198.70;1731025;82;21092;-64
2022/01/04 02:34:54;;;;;;;1.27;0.80;;;;;;;5.39;100.00;98198.98;1714506;82;21518;-63
2022/01/04 02:37:25;;;;;;;1.90;0.70;;;;;;;5.37;100.00;98195.77;1715608;82;21154;-64
2022/01/04 02:39:52;;;;;;;1.37;0.40;;;;;;;5.39;100.00;98197.63;1723018;82;21026;-64
2022/01/04 02:42:19;;;;;;;1.40;0.60;;;;;;;5.39;100.00;98203.03;1736651;82;21059;-64
2022/01/04 02:44:45;;;;;;;0.90;0.50;;;;;;;5.38;100.00;98210.06;1737703;82;21039;-64
2022/01/04 02:47:12;;;;;;;;;;;;;;;5.34;100.00;98209.00;1737782;82;21585;-67
2022/01/04 02:49:38;;;;;;;1.60;0.40;;;;;;;5.35;100.00;98207.35;1740580;82;20149;-64
2022/01/04 02:52:06;;;;;;;1.67;0.62;;;;;;;5.33;100.00;98214.12;1723258;82;21539;-64
2022/01/04 02:54:33;;;;;;;1.00;0.37;;;;;;;5.29;100.00;98218.44;1725626;82;21501;-64
2022/01/04 02:56:59;;;;;;;2.77;0.50;;;;;;;5.28;100.00;98218.98;1730126;82;21036;-64
2022/01/04 02:59:26;;;;;;;0.98;0.40;;;;;;;5.33;100.00;98214.93;1734768;82;21019;-64
2022/01/04 03:01:52;;;;;;;2.22;0.70;;;;;;;5.33;100.00;98210.87;1728297;82;21016;-64
2022/01/04 03:04:20;;;;;;;2.02;0.70;;;;;;;5.30;100.00;98221.41;1745807;82;21526;-63
2022/01/04 03:06:46;;;;;;;4.15;0.50;;;;;;;5.29;100.00;98213.05;1741823;82;21058;-63
2022/01/04 03:09:13;;;;;;;1.45;0.50;;;;;;;5.31;100.00;98214.41;1730829;82;21537;-63
2022/01/04 03:11:41;;;;;;;2.67;0.60;;;;;;;5.33;100.00;98214.93;1742011;82;21059;-64
2022/01/04 03:14:09;;;;;;;3.45;0.50;;;;;;;5.33;100.00;98218.16;1733276;82;21022;-64
2022/01/04 03:16:36;;;;;;;1.35;0.35;;;;;;;5.31;100.00;98217.64;1728863;82;21654;-64
2022/01/04 03:19:05;;;;;;;3.90;0.62;;;;;;;5.32;100.00;98216.54;1741315;82;21035;-64
2022/01/04 03:21:34;;;;;;;2.30;0.82;;;;;;;5.35;100.00;98220.84;1723815;82;21115;-64
2022/01/04 03:24:03;;;;;;;2.40;0.75;;;;;;;5.37;100.00;98222.75;1743684;82;21008;-63
2022/01/04 03:26:29;;;;;;;1.82;0.65;;;;;;;5.35;100.00;98222.20;1678523;85;21585;-64
2022/01/04 03:28:56;;;;;;;1.45;0.60;;;;;;;5.35;100.00;98222.77;1703550;84;21027;-64
2022/01/04 03:31:22;;;;;;;;;;;;;;;5.37;100.00;98221.40;1738135;82;21043;-64
2022/01/04 03:33:48;;;;;;;2.67;0.98;;;;;;;5.39;100.00;98230.02;1729261;82;20136;-64
2022/01/04 03:36:15;;;;;;;2.65;1.12;;;;;;;5.32;100.00;98223.28;1728183;82;21067;-63
2022/01/04 03:38:42;;;;;;;3.62;1.20;;;;;;;5.27;100.00;98230.88;1675032;85;21004;-64
2022/01/04 03:41:09;;;;;;;4.10;1.15;;;;;;;5.30;100.00;98237.06;1675467;84;21069;-64
2022/01/04 03:43:37;;;;;;;3.27;1.50;;;;;;;5.32;100.00;98233.55;1741642;82;21029;-64
2022/01/04 03:46:05;;;;;;;5.85;1.60;;;;;;;5.34;100.00;98240.84;1746862;82;21040;-64
2022/01/04 03:48:34;;;;;;;5.42;2.50;;;;;;;5.35;100.00;98247.83;1738788;82;21019;-64
2022/01/04 03:51:02;;;;;;;3.92;2.05;;;;;;;5.32;100.00;98244.88;1730972;82;21031;-64
2022/01/04 03:53:30;;;;;;;5.03;2.20;;;;;;;5.30;100.00;98242.47;1719836;82;21043;-64
2022/01/04 03:55:57;;;;;;;4.35;2.20;;;;;;;5.33;100.00;98245.96;1742778;82;21051;-64
2022/01/04 03:58:23;;;;;;;4.85;2.10;;;;;;;5.36;100.00;98244.59;1728644;82;21017;-64
2022/01/04 04:00:50;;;;;;;5.80;2.47;;;;;;;5.38;100.00;98253.24;1735577;82;21058;-64
2022/01/04 04:03:17;;;;;;;4.60;2.40;;;;;;;5.34;100.00;98248.13;1743005;82;21090;-65
2022/01/04 04:05:43;;;;;;;2.95;2.10;;;;;;;5.36;100.00;98253.50;1727257;82;21055;-64
2022/01/04 04:08:10;;;;;;;5.85;2.50;;;;;;;5.41;100.00;98258.09;1720934;82;21543;-64
2022/01/04 04:10:38;;;;;;;5.85;2.52;;;;;;;5.43;100.00;98257.26;1730368;82;21079;-64
2022/01/04 04:13:04;;;;;;;5.05;3.33;;;;;;;5.44;100.00;98262.39;1736847;82;21059;-65
2022/01/04 04:15:32;;;;;;;5.42;3.22;;;;;;;5.41;100.00;98262.95;1725952;82;21075;-63
2022/01/04 04:17:58;;;;;;;6.65;3.00;;;;;;;5.39;100.00;98265.09;1743412;82;20999;-64
2022/01/04 04:20:25;;;;;;;7.42;3.10;;;;;;;5.42;100.00;98263.20;1745445;82;21007;-63
2022/01/04 04:22:51;;;;;;;6.78;2.98;;;;;;;5.42;100.00;98265.89;1717757;82;21555;-64
2022/01/04 04:25:18;;;;;;;4.45;3.05;;;;;;;5.42;100.00;98265.89;1721825;82;21063;-64
2022/01/04 04:27:44;;;;;;;5.15;3.22;;;;;;;5.39;100.00;98265.09;1716171;82;21033;-64
2022/01/04 04:30:12;;;;;;;5.20;3.00;;;;;;;5.38;100.00;98269.44;1726814;82;21001;-64
2022/01/04 04:32:40;;;;;;;6.90;3.72;;;;;;;5.41;100.00;98267.53;1741016;82;21034;-64
2022/01/04 04:35:07;;;;;;;5.85;2.90;;;;;;;5.41;100.00;98264.30;1739772;82;21047;-64
2022/01/04 04:37:33;;;;;;;5.30;3.55;;;;;;;5.42;100.00;98277.25;1719459;82;21067;-64
2022/01/04 04:40:01;;;;;;;5.20;3.17;;;;;;;5.37;100.00;98274.02;1727349;82;21048;-65
2022/01/04 04:42:27;;;;;;;4.35;2.90;;;;;;;5.36;100.00;98275.09;1722799;82;21142;-64
2022/01/04 04:44:54;;;;;;;;;;;;;;;5.38;100.00;98275.64;1735516;82;21048;-64
2022/01/04 04:47:20;;;;;;;5.37;3.22;;;;;;;5.40;100.00;98274.00;1734754;82;20109;-64
2022/01/04 04:49:46;;;;;;;6.45;3.45;;;;;;;5.26;100.00;98288.61;1734630;82;21538;-64
2022/01/04 04:52:13;;;;;;;5.22;3.67;;;;;;;5.24;100.00;98281.88;1680705;83;21060;-64
2022/01/04 04:54:40;;;;;;;6.35;4.03;;;;;;;5.27;100.00;98285.37;1717205;82;21054;-64
2022/01/04 04:57:06;;;;;;;6.62;4.50;;;;;;;5.27;100.00;98291.58;1740089;82;21131;-64
2022/01/04 04:59:33;;;;;;;7.50;3.95;;;;;;;5.24;100.00;98288.08;1724284;82;21000;-64
2022/01/04 05:01:59;;;;;;;6.33;4.20;;;;;;;5.22;100.00;98296.97;1724141;82;21040;-64
2022/01/04 05:04:26;;;;;;;5.87;3.67;;;;;;;5.23;100.00;98293.73;1732603;82;21047;-64
2022/01/04 05:06:53;;;;;;;5.53;4.12;;;;;;;5.23;100.00;98295.09;1735149;82;21134;-64
2022/01/04 05:09:20;;;;;;;6.58;4.45;;;;;;;5.21;100.00;98299.39;1724124;82;21039;-64
2022/01/04 05:11:47;;;;;;;7.10;4.47;;;;;;;5.17;100.00;98297.53;1739527;82;21019;-64
2022/01/04 05:14:13;;;;;;;7.62;4.35;;;;;;;5.17;100.00;98298.34;1741728;82;21095;-64
2022/01/04 05:16:40;;;;;;;6.65;4.25;;;;;;;5.20;100.00;98300.49;1695485;84;21584;-64
2022/01/04 05:19:06;;;;;;;6.42;5.35;;;;;;;5.20;100.00;98314.52;1706215;82;21014;-64
2022/01/04 05:21:32;;;;;;;7.33;4.60;;;;;;;5.19;100.00;98315.05;1729851;82;21598;-64
2022/01/04 05:23:59;;;;;;;5.72;4.28;;;;;;;5.18;100.00;98314.77;1716472;83;21063;-65
2022/01/04 05:26:27;;;;;;;7.90;4.30;;;;;;;5.21;100.00;98314.23;1733057;82;21028;-64
2022/01/04 05:28:53;;;;;;;;;;;;;;;5.23;100.00;98313.44;1715071;82;21028;-64
2022/01/04 05:31:20;;;;;;;6.87;3.30;;;;;;;5.23;100.00;98301.30;1719318;82;20398;-65
2022/01/04 05:33:46;;;;;;;7.03;3.17;;;;;;;5.15;100.00;98313.16;1715512;82;21041;-64
2022/01/04 05:36:14;;;;;;;4.70;2.70;;;;;;;5.18;100.00;98314.77;1712269;82;21135;-64
2022/01/04 05:41:27;;;;;;;5.22;2.90;;;;;;;5.26;100.00;98312.89;1781719;78;22484;-64
2022/01/04 05:43:53;;;;;;;3.37;2.77;;;;;;;5.18;100.00;98331.50;1736258;82;21043;-64
2022/01/04 05:46:20;;;;;;;4.55;2.60;;;;;;;5.21;100.00;98331.77;1728496;82;21077;-64
2022/01/04 05:48:46;;;;;;;6.17;2.67;;;;;;;5.26;100.00;98335.01;1738669;82;21045;-64
2022/01/04 05:51:13;;;;;;;4.65;2.90;;;;;;;5.31;100.00;98336.37;1744370;82;21153;-65
2022/01/04 05:53:40;;;;;;;5.12;2.98;;;;;;;5.28;100.00;98345.01;1729588;82;21059;-65
2022/01/04 05:56:06;;;;;;;4.92;2.87;;;;;;;5.28;100.00;98349.05;1725331;82;21550;-64
2022/01/04 05:58:33;;;;;;;7.12;3.42;;;;;;;5.31;100.00;98355.25;1724371;82;21024;-64
2022/01/04 06:01:00;;;;;;;;;;;;;;;5.34;100.00;98362.80;1732815;82;21066;-64
2022/01/04 06:03:27;;;;;;;6.28;3.92;;;;;;;5.30;100.00;98359.02;1727112;81;20152;-65
2022/01/04 06:05:54;;;;;;;7.53;3.52;;;;;;;5.23;100.00;98363.88;1731173;82;21036;-65
2022/01/04 06:08:21;;;;;;;;;;;;;;;5.28;100.00;98363.89;1751422;82;21035;-65
2022/01/04 06:10:54;;;;;;;5.70;3.58;;;;;;;5.32;100.00;98371.16;1737640;82;20134;-65
2022/01/04 06:16:07;;;;;;;7.40;4.92;;;;;;;5.19;100.00;98365.50;1740186;82;21094;-63
2022/01/04 06:18:34;;;;;;;8.15;4.58;;;;;;;5.24;100.00;98368.20;1709557;83;21061;-64
2022/01/04 06:21:00;;;;;;;7.37;5.08;;;;;;;5.24;100.00;98371.72;1698749;84;21616;-64
2022/01/04 06:23:27;;;;;;;6.67;4.28;;;;;;;5.25;100.00;98371.16;1686206;84;21030;-64
2022/01/04 06:25:53;;;;;;;7.20;4.22;;;;;;;5.20;100.00;98381.96;1703383;84;21589;-64
2022/01/04 06:28:21;;;;;;;6.35;3.35;;;;;;;5.17;100.00;98381.97;1689164;84;21094;-64
2022/01/04 06:30:50;;;;;;;6.15;4.47;;;;;;;5.17;100.00;98384.67;1685569;84;21121;-64
2022/01/04 06:33:21;;;;;;;9.63;5.97;;;;;;;5.19;100.00;98393.29;1708543;84;21047;-64
2022/01/04 06:35:48;;;;;;;8.25;5.75;;;;;;;5.15;100.00;98392.73;1701953;84;21474;-64
2022/01/04 06:38:15;;;;;;;8.25;5.00;;;;;;;5.12;100.00;98398.14;1709864;84;20999;-64
2022/01/04 06:40:42;;;;;;;10.38;5.67;;;;;;;5.16;100.00;98401.92;1699021;83;21581;-64
2022/01/04 06:43:09;;;;;;;7.50;5.17;;;;;;;5.14;100.00;98393.27;1690721;84;21011;-64
2022/01/04 06:45:36;;;;;;;8.05;5.42;;;;;;;5.12;100.00;98402.19;1688227;84;21090;-64
2022/01/04 06:48:04;;;;;;;7.35;4.85;;;;;;;5.15;100.00;98405.69;1681823;84;21035;-64
2022/01/04 06:50:32;;;;;;;7.78;4.78;;;;;;;5.18;100.00;98402.98;1680342;84;21146;-63
2022/01/04 06:52:58;;;;;;;;;;;;;;;5.15;100.00;98397.60;1690990;83;21375;-64
2022/01/04 06:55:24;;;;;;;8.73;4.72;;;;;;;5.19;100.00;98399.22;1682095;84;20143;-64
2022/01/04 06:57:52;;;;;;;7.08;3.83;;;;;;;5.16;100.00;98399.77;1671661;85;20999;-64
2022/01/04 07:00:19;;;;;;;7.60;4.33;;;;;;;5.19;100.00;98392.48;1719046;82;21089;-64
2022/01/04 07:02:45;;;;;;;6.92;4.35;;;;;;;5.16;100.00;98402.45;1729731;82;21569;-64
2022/01/04 07:05:11;;;;;;;6.60;4.17;;;;;;;5.14;100.00;98406.76;1726903;82;21530;-64
2022/01/04 07:07:39;;;;;;;8.30;4.80;;;;;;;5.15;100.00;98405.69;1734259;81;21644;-65
2022/01/04 07:10:07;;;;;;;8.05;4.28;;;;;;;5.11;100.00;98406.48;1738697;82;21074;-63
2022/01/04 07:12:34;;;;;;;8.85;4.37;;;;;;;5.07;100.00;98413.49;1734267;82;21015;-63
2022/01/04 07:15:01;;;;;;;9.68;4.60;;;;;;;5.09;100.00;98411.36;1727329;82;21047;-63
2022/01/04 07:17:28;;;;;;;11.05;4.92;;;;;;;5.11;100.00;98411.34;1726754;82;21992;-63
2022/01/04 07:19:54;;;;;;;7.22;4.78;;;;;;;5.09;100.00;98411.36;1733680;82;21019;-64
2022/01/04 07:22:22;;;;;;;8.38;4.47;;;;;;;5.10;100.00;98407.02;1719277;82;21063;-64
2022/01/04 07:24:50;;;;;;;7.80;4.50;;;;;;;5.18;100.00;98412.43;1735070;82;21498;-64
2022/01/04 07:27:16;;;;;;;9.60;4.72;;;;;;;5.18;100.00;98413.78;1747163;82;21099;-63
2022/01/04 07:29:43;;;;;;;9.58;5.28;;;;;;;5.17;100.00;98418.92;1734238;82;20995;-63
2022/01/04 07:32:10;;;;;;;6.55;4.40;;;;;;;5.22;100.00;98420.27;1705952;82;21563;-64
2022/01/04 07:34:38;;;;;;;7.03;4.62;;;;;;;5.28;100.00;98420.55;1716970;83;21638;-64
2022/01/04 07:37:05;;;;;;;7.05;4.17;;;;;;;5.31;100.00;98416.78;1665978;85;21146;-64
2022/01/04 07:39:31;;;;;;;6.62;3.65;;;;;;;5.30;100.00;98427.30;1683249;84;21062;-65
2022/01/04 07:41:58;;;;;;;8.28;4.20;;;;;;;5.30;100.00;98425.13;1720716;82;21061;-65
2022/01/04 07:44:25;;;;;;;5.83;3.60;;;;;;;5.35;100.00;98419.75;1718028;82;21047;-66
2022/01/04 07:46:52;;;;;;;9.05;4.45;;;;;;;5.38;100.00;98421.38;1742951;82;21086;-66
2022/01/04 07:49:19;;;;;;;9.95;4.83;;;;;;;5.39;100.00;98422.16;1742981;80;21008;-66
2022/01/04 07:51:46;;;;;;;9.70;4.83;;;;;;;5.35;100.00;98425.15;1733910;80;21482;-65
2022/01/04 07:54:12;;;;;;;7.83;4.97;;;;;;;5.33;100.00;98421.36;1735825;80;21028;-65
2022/01/04 07:56:39;;;;;;;11.08;5.37;;;;;;;5.37;100.00;98417.58;1757802;80;21047;-66
2022/01/04 07:59:05;;;;;;;7.95;4.85;;;;;;;5.42;100.00;98419.72;1725734;82;21541;-65
2022/01/04 08:01:32;;;;;;;9.63;5.25;;;;;;;5.40;100.00;98419.20;1730028;82;21019;-66
2022/01/04 08:04:00;;;;;;;8.28;5.00;;;;;;;5.40;100.00;98427.30;1727220;82;21549;-65
2022/01/04 08:06:27;;;;;;;8.90;5.20;;;;;;;5.44;100.00;98428.38;1718082;82;21047;-65
2022/01/04 08:08:54;;;;;;;8.30;5.10;;;;;;;5.49;100.00;98431.06;1724993;82;21027;-67
2022/01/04 08:11:20;;;;;;;9.48;6.20;;;;;;;5.51;100.00;98428.92;1733423;82;21031;-67
2022/01/04 08:13:47;;;;;;;10.80;6.40;;;;;;;5.50;100.00;98421.89;1735419;82;21479;-66
2022/01/04 08:16:17;;;;;;;10.82;6.10;;;;;;;5.55;100.00;98429.72;1739643;82;21071;-66
2022/01/04 08:18:45;;;;;;;11.15;5.70;;;;;;;5.68;100.00;98424.58;1739815;82;21394;-66
2022/01/04 08:21:12;;;;;;;9.83;5.62;;;;;;;5.80;100.00;98422.95;1730346;82;21507;-66
2022/01/04 08:23:39;;;;;;;9.00;5.33;;;;;;;5.83;100.00;98429.97;1724940;82;21019;-66
2022/01/04 08:26:05;;;;;;;9.00;5.15;;;;;;;5.85;100.00;98431.84;1740830;82;21410;-66
2022/01/04 08:28:32;;;;;;;8.70;5.47;;;;;;;5.91;100.00;98428.10;1728111;82;20979;-65
2022/01/04 08:30:58;;;;;;;9.90;5.95;;;;;;;6.03;100.00;98423.73;1724576;82;21083;-66
2022/01/04 08:33:25;;;;;;;10.65;6.15;;;;;;;6.13;100.00;98426.97;1722790;82;21008;-65
2022/01/04 08:35:51;;;;;;;9.60;5.58;;;;;;;6.18;100.00;98425.05;1727264;82;21097;-69
2022/01/04 08:38:18;;;;;;;8.00;5.28;;;;;;;6.28;100.00;98425.02;1731716;82;21490;-68
2022/01/04 08:40:44;;;;;;;9.35;5.42;;;;;;;6.46;100.00;98422.25;1731926;81;21031;-68
2022/01/04 08:43:11;;;;;;;8.23;5.15;;;;;;;6.63;100.00;98419.19;1727087;82;21011;-70
2022/01/04 08:45:37;;;;;;;9.95;5.50;;;;;;;6.74;100.00;98423.47;1735554;82;21028;-69
2022/01/04 08:48:04;;;;;;;8.65;5.47;;;;;;;6.76;100.00;98430.23;1726146;82;21003;-68
2022/01/04 08:50:31;;;;;;;9.50;5.50;;;;;;;6.86;100.00;98422.60;1654417;86;21132;-68
2022/01/04 08:52:58;;;;;;;9.10;5.53;;;;;;;7.05;100.00;98422.20;1711774;82;21614;-68
2022/01/04 08:55:24;;;;;;;9.50;6.05;;;;;;;7.24;100.00;98419.10;1722066;82;21083;-67
2022/01/04 08:57:50;;;;;;;12.05;5.67;;;;;;;7.48;100.00;98421.34;1719663;82;21455;-68
2022/01/04 09:00:19;;;;;;;;;;;;;;;7.63;100.00;98428.54;1739351;82;21063;-66
2022/01/04 09:02:45;;;;;;;8.10;5.40;;;;;;;7.68;100.00;98430.41;1723606;82;20126;-68
2022/01/04 09:05:12;;;;;;;12.37;6.12;;;;;;;7.65;100.00;98427.70;1721432;82;20988;-67
2022/01/04 09:07:38;;;;;;;11.63;6.35;;;;;;;7.70;100.00;98438.50;1720224;82;20992;-67
2022/01/04 09:10:05;;;;;;;;;;;;;;;7.59;100.00;98442.92;1740160;82;21019;-67
2022/01/04 09:12:52;;;;;;;11.45;5.97;;;;;;;7.44;100.00;98442.49;1725310;81;20170;-68
2022/01/04 09:20:41;;;;;;;13.17;6.90;;;;;;;6.87;100.00;98451.28;1726263;82;21130;-68
2022/01/04 09:23:08;;;;;;;13.03;7.72;;;;;;;6.81;100.00;98442.91;1722513;82;21603;-69
2022/01/04 09:25:35;;;;;;;12.73;7.30;;;;;;;6.72;100.00;98437.28;1709378;84;21111;-67
2022/01/04 09:28:01;;;;;;;;;;;;;;;6.61;100.00;98447.06;1726346;82;21028;-68
2022/01/04 09:30:28;;;;;;;13.60;7.20;;;;;;;6.48;100.00;98440.38;1710776;82;20129;-67
2022/01/04 09:32:54;;;;;;;10.72;7.08;;;;;;;6.42;100.00;98448.20;1734932;82;20999;-68
2022/01/04 09:35:21;;;;;;;15.20;7.80;;;;;;;6.40;100.00;98451.20;1717281;82;20980;-67
2022/01/04 09:37:47;;;;;;;13.43;8.78;;;;;;;6.32;100.00;98442.84;1717942;82;21851;-68
2022/01/04 09:40:13;;;;;;;16.42;9.05;;;;;;;6.21;100.00;98450.70;1737477;81;21069;-68
2022/01/04 09:42:42;;;;;;;12.25;7.83;;;;;;;6.17;100.00;98451.80;1742001;81;21620;-68
2022/01/04 09:45:09;;;;;;;14.05;7.60;;;;;;;6.18;100.00;98449.38;1741394;82;21050;-68
2022/01/04 09:47:36;;;;;;;14.43;8.38;;;;;;;6.19;100.00;98450.19;1735778;82;21645;-68
2022/01/04 09:50:08;;;;;;;12.88;7.40;;;;;;;6.14;100.00;98455.59;1750922;82;20972;-68
2022/01/04 09:52:31;;;;;;;12.47;6.97;;;;;;;6.09;100.00;98459.13;1743121;82;21027;-68
2022/01/04 09:54:58;;;;;;;11.18;5.87;;;;;;;6.11;100.00;98456.95;1750802;82;21414;-68
2022/01/04 09:57:24;;;;;;;10.20;6.10;;;;;;;6.11;100.00;98456.95;1746447;82;21600;-68
2022/01/04 09:59:50;;;;;;;11.65;6.03;;;;;;;6.05;100.00;98465.34;1732664;81;20972;-68
2022/01/04 10:02:19;;;;;;;10.05;5.08;;;;;;;6.07;100.00;98471.27;1746375;82;21530;-69
2022/01/04 10:04:46;;;;;;;11.03;6.03;;;;;;;6.13;100.00;98464.23;1738444;82;20983;-69
2022/01/04 10:07:12;;;;;;;12.13;6.00;;;;;;;6.13;100.00;98464.23;1751472;80;21101;-68
2022/01/04 10:09:48;;;;;;;11.95;6.35;;;;;;;6.11;100.00;98451.55;1748356;80;21041;-68
2022/01/04 10:12:16;;;;;;;12.15;6.20;;;;;;;6.12;100.00;98455.88;1685721;84;21118;-68
2022/01/04 10:14:45;;;;;;;11.75;6.70;;;;;;;6.22;100.00;98455.85;1737017;82;21012;-68
2022/01/04 10:17:17;;;;;;;16.55;8.23;;;;;;;6.39;100.00;98450.93;1744745;82;21114;-68
2022/01/04 10:19:48;;;;;;;13.95;7.58;;;;;;;6.64;100.00;98455.43;1733438;82;21034;-69
2022/01/04 10:22:31;;;;;;;16.15;8.23;;;;;;;6.86;100.00;98445.05;1742507;82;21070;-68
2022/01/04 10:25:06;;;;;;;13.75;8.60;;;;;;;6.87;100.00;98449.36;1735038;82;21554;-67
2022/01/04 10:27:43;;;;;;;13.20;7.53;;;;;;;6.80;100.00;98442.66;1748279;82;21039;-67
2022/01/04 10:30:29;;;;;;;13.90;7.37;;;;;;;6.82;100.00;98445.88;1740295;82;21089;-67
2022/01/04 10:33:15;;;;;;;15.08;7.60;;;;;;;6.74;100.00;98446.45;1682985;85;21176;-67
2022/01/04 10:35:44;;;;;;;12.37;6.67;;;;;;;6.62;100.00;98454.09;1701221;82;21589;-68
2022/01/04 10:38:18;;;;;;;10.43;6.10;;;;;;;6.55;100.00;98450.34;1730330;82;21480;-68
2022/01/04 10:40:48;;;;;;;13.35;6.70;;;;;;;6.58;100.00;98452.48;1723216;83;21086;-67
2022/01/04 10:43:19;;;;;;;15.05;8.00;;;;;;;6.53;100.00;98454.39;1723410;83;21478;-68
2022/01/04 10:45:45;;;;;;;15.48;7.40;;;;;;;6.44;100.00;98453.63;1743201;82;21083;-67
2022/01/04 10:48:27;;;;;;;11.48;6.65;;;;;;;6.40;100.00;98444.45;1739303;82;21443;-68
2022/01/04 10:50:59;;;;;;;12.65;7.15;;;;;;;6.46;100.00;98453.34;1741861;82;21100;-67
2022/01/04 10:53:32;;;;;;;14.45;6.42;;;;;;;6.50;100.00;98449.81;1745805;82;20988;-67
2022/01/04 10:56:03;;;;;;;11.45;6.35;;;;;;;6.52;100.00;98452.22;1743103;82;21661;-68
2022/01/04 10:58:35;;;;;;;12.07;6.67;;;;;;;6.52;100.00;98450.09;1740837;82;20961;-67
2022/01/04 11:01:06;;;;;;;16.10;5.92;;;;;;;6.55;100.00;98445.48;1734370;82;21139;-67
2022/01/04 11:03:35;;;;;;;14.25;5.95;;;;;;;6.60;100.00;98443.55;1734812;82;21525;-67
2022/01/04 11:06:06;;;;;;;11.38;5.55;;;;;;;6.54;100.00;98439.80;1687190;84;21640;-67
2022/01/04 11:08:33;;;;;;;11.20;5.40;;;;;;;6.46;100.00;98439.82;1733283;82;21537;-67
2022/01/04 11:11:00;;;;;;;9.70;4.75;;;;;;;6.45;100.00;98442.25;1753095;82;21074;-67
2022/01/04 11:13:27;;;;;;;12.43;5.45;;;;;;;6.49;100.00;98441.97;1742842;82;21034;-68
2022/01/04 11:15:55;;;;;;;10.68;5.35;;;;;;;6.49;100.00;98440.61;1724433;82;21071;-67
2022/01/04 11:18:21;;;;;;;11.40;5.72;;;;;;;6.44;100.00;98435.24;1729741;82;20992;-67
2022/01/04 11:20:48;;;;;;;9.78;5.58;;;;;;;6.41;100.00;98439.28;1748145;82;21617;-66
2022/01/04 11:23:16;;;;;;;10.08;5.35;;;;;;;6.44;100.00;98440.65;1731971;82;20980;-66
2022/01/04 11:25:45;;;;;;;11.22;5.00;;;;;;;6.47;100.00;98432.80;1725343;82;21390;-66
2022/01/04 11:28:13;;;;;;;10.05;5.05;;;;;;;6.48;100.00;98431.69;1750833;82;21447;-66
2022/01/04 11:31:14;;;;;;;9.78;5.55;;;;;;;6.48;100.00;98432.26;1751697;82;21038;-66
2022/01/04 11:34:00;;;;;;;10.70;4.87;;;;;;;6.50;100.00;98445.76;1729659;82;21537;-66
2022/01/04 11:36:27;;;;;;;11.03;5.00;;;;;;;6.55;100.00;98438.72;1729982;82;21055;-66
2022/01/04 11:38:53;;;;;;;11.90;5.42;;;;;;;6.59;100.00;98447.90;1745880;82;20988;-67
2022/01/04 11:41:25;;;;;;;11.22;5.65;;;;;;;6.58;100.00;98448.44;1748652;82;21539;-67
2022/01/04 11:43:51;;;;;;;9.35;4.50;;;;;;;6.57;100.00;98446.00;1723583;82;21423;-67
2022/01/04 11:46:35;;;;;;;9.30;4.60;;;;;;;6.60;100.00;98444.09;1718882;82;21051;-67
2022/01/04 11:49:12;;;;;;;10.58;4.90;;;;;;;6.68;100.00;98442.98;1720267;82;20991;-68
2022/01/04 11:51:41;;;;;;;9.70;4.80;;;;;;;6.66;100.00;98442.42;1711952;82;21566;-67
2022/01/04 11:54:27;;;;;;;12.15;4.75;;;;;;;6.60;100.00;98446.25;1714150;82;21040;-67